Time;durP1;ratioP1;P1;durP2;ratioP2;P2;SDS_P1;SDS_P2;PMS_P1;PMS_P2;Temp;Humidity;BMP_temperature;BMP_pressure;BME280_temperature;BME280_humidity;BME280_pressure;Samples;Min_cycle;Max_cycle;Signal;HPM_P1;HPM_P2
2022/07/09 00:01:44;;;;;;;2.22;1.40;;;18.40;58.20;;;;;;944391;149;27314;-71
2022/07/09 00:04:11;;;;;;;3.17;1.60;;;18.40;58.60;;;;;;944544;148;27441;-71
2022/07/09 00:06:38;;;;;;;2.27;1.70;;;18.30;58.60;;;;;;943823;150;27928;-71
2022/07/09 00:09:04;;;;;;;3.70;1.82;;;18.30;58.60;;;;;;943513;147;27293;-71
2022/07/09 00:11:31;;;;;;;2.53;1.73;;;18.20;58.80;;;;;;942937;148;27330;-71
2022/07/09 00:13:57;;;;;;;3.53;1.97;;;18.20;58.90;;;;;;945450;147;27352;-71
2022/07/09 00:16:24;;;;;;;2.83;1.87;;;18.20;59.10;;;;;;944502;150;27373;-71
2022/07/09 00:18:50;;;;;;;6.60;2.50;;;18.10;59.20;;;;;;945699;150;27329;-71
2022/07/09 00:21:17;;;;;;;3.50;2.10;;;18.10;59.20;;;;;;942314;150;27333;-71
2022/07/09 00:23:44;;;;;;;1.87;1.77;;;18.10;59.20;;;;;;943370;150;27440;-71
2022/07/09 00:26:10;;;;;;;2.67;1.85;;;18.00;59.30;;;;;;944560;147;27258;-71
2022/07/09 00:28:37;;;;;;;4.90;2.57;;;18.00;59.50;;;;;;945233;150;27425;-71
2022/07/09 00:31:03;;;;;;;4.90;1.80;;;18.00;59.80;;;;;;943772;148;27462;-70
2022/07/09 00:33:30;;;;;;;2.53;1.60;;;17.90;59.80;;;;;;945908;150;27421;-70
2022/07/09 00:35:57;;;;;;;1.10;1.00;;;17.90;59.80;;;;;;944215;150;27342;-70
2022/07/09 00:38:23;;;;;;;2.40;1.40;;;17.90;59.90;;;;;;945151;149;27427;-71
2022/07/09 00:40:50;;;;;;;1.50;1.20;;;17.80;59.90;;;;;;945002;149;27903;-71
2022/07/09 00:43:19;;;;;;;1.20;1.10;;;17.80;60.10;;;;;;945582;147;27471;-71
2022/07/09 00:45:46;;;;;;;1.17;1.07;;;17.70;60.20;;;;;;943609;150;28485;-72
2022/07/09 00:48:12;;;;;;;1.90;1.32;;;17.70;60.30;;;;;;942840;148;27304;-71
2022/07/09 00:50:39;;;;;;;1.10;1.00;;;17.60;60.60;;;;;;942867;150;27367;-71
2022/07/09 00:53:07;;;;;;;1.80;1.27;;;17.60;60.90;;;;;;944239;150;27312;-71
2022/07/09 00:55:32;;;;;;;1.47;1.37;;;17.60;61.00;;;;;;947147;150;27845;-71
2022/07/09 00:57:59;;;;;;;1.27;1.00;;;17.50;61.10;;;;;;948030;149;27394;-71
2022/07/09 01:00:25;;;;;;;0.90;0.90;;;17.40;61.10;;;;;;949411;149;27397;-71
2022/07/09 01:02:52;;;;;;;1.37;1.10;;;17.40;61.30;;;;;;950642;146;27400;-71
2022/07/09 01:05:19;;;;;;;4.13;1.23;;;17.40;61.50;;;;;;949007;149;27312;-71
2022/07/09 01:07:46;;;;;;;1.80;1.10;;;17.30;61.60;;;;;;951326;146;27365;-72
2022/07/09 01:10:12;;;;;;;1.53;1.10;;;17.30;61.80;;;;;;951352;149;27352;-71
2022/07/09 01:12:38;;;;;;;1.37;1.27;;;17.20;62.00;;;;;;949760;149;27413;-71
2022/07/09 01:15:06;;;;;;;1.10;1.03;;;17.10;62.20;;;;;;950424;146;27308;-71
2022/07/09 01:17:41;;;;;;;2.27;1.20;;;17.10;62.40;;;;;;949246;146;27430;-71
2022/07/09 01:20:07;;;;;;;2.63;1.50;;;17.10;62.70;;;;;;948696;149;27413;-71
2022/07/09 01:22:34;;;;;;;1.57;1.30;;;17.00;62.80;;;;;;952158;149;27430;-71
2022/07/09 01:25:01;;;;;;;2.57;1.30;;;17.00;63.20;;;;;;951548;149;27416;-71
2022/07/09 01:27:27;;;;;;;1.17;1.03;;;17.00;63.30;;;;;;947606;148;28649;-71
2022/07/09 01:29:54;;;;;;;2.77;1.50;;;16.90;63.30;;;;;;949008;149;27275;-71
2022/07/09 01:32:20;;;;;;;1.60;1.50;;;16.90;63.50;;;;;;952204;149;27337;-71
2022/07/09 01:34:47;;;;;;;1.47;1.37;;;16.90;63.60;;;;;;949488;149;27359;-71
2022/07/09 01:37:14;;;;;;;1.57;1.47;;;16.90;63.80;;;;;;949017;149;27445;-71
2022/07/09 01:39:49;;;;;;;0.97;0.97;;;16.80;63.90;;;;;;949015;149;27357;-71
2022/07/09 01:42:07;;;;;;;1.50;1.40;;;16.80;64.10;;;;;;949016;149;27692;-71
2022/07/09 01:44:33;;;;;;;3.33;1.70;;;16.80;64.30;;;;;;951234;149;27329;-71
2022/07/09 01:47:00;;;;;;;2.43;1.60;;;16.70;64.50;;;;;;949151;149;27321;-71
2022/07/09 01:49:26;;;;;;;2.03;1.57;;;16.70;64.60;;;;;;948733;146;27331;-71
2022/07/09 01:51:53;;;;;;;1.53;1.43;;;16.70;64.70;;;;;;948867;146;27490;-71
2022/07/09 01:54:20;;;;;;;3.93;1.63;;;16.70;64.90;;;;;;949661;149;27402;-71
2022/07/09 01:56:46;;;;;;;1.50;1.40;;;16.60;65.00;;;;;;949889;149;27301;-71
2022/07/09 01:59:13;;;;;;;1.73;1.53;;;16.70;65.30;;;;;;945802;146;27329;-71
2022/07/09 02:01:39;;;;;;;1.50;1.40;;;16.60;65.50;;;;;;946291;150;27414;-71
2022/07/09 02:04:06;;;;;;;1.77;1.50;;;16.60;65.60;;;;;;942637;150;27472;-71
2022/07/09 02:06:33;;;;;;;1.60;1.50;;;16.60;65.70;;;;;;944355;150;27338;-71
2022/07/09 02:08:59;;;;;;;4.37;2.30;;;16.60;66.20;;;;;;945618;150;27258;-71
2022/07/09 02:11:26;;;;;;;2.50;2.03;;;16.60;65.80;;;;;;944352;149;27270;-71
2022/07/09 02:13:52;;;;;;;1.50;1.40;;;16.60;65.90;;;;;;944877;148;27423;-71
2022/07/09 02:16:19;;;;;;;1.60;1.50;;;16.50;65.80;;;;;;944799;150;27446;-71
2022/07/09 02:18:46;;;;;;;1.53;1.43;;;16.50;66.00;;;;;;944417;147;27462;-71
2022/07/09 02:21:12;;;;;;;2.10;1.47;;;16.50;66.10;;;;;;944068;150;27371;-71
2022/07/09 02:23:39;;;;;;;1.70;1.60;;;16.50;66.30;;;;;;943934;149;27329;-71
2022/07/09 02:26:05;;;;;;;1.50;1.40;;;16.40;66.50;;;;;;944032;150;27396;-71
2022/07/09 02:28:32;;;;;;;1.97;1.40;;;16.40;66.60;;;;;;943680;150;27349;-71
2022/07/09 02:30:58;;;;;;;2.97;1.67;;;16.40;66.80;;;;;;944907;150;27369;-71
2022/07/09 02:33:25;;;;;;;1.87;1.50;;;16.40;66.80;;;;;;942148;150;27405;-71
2022/07/09 02:35:52;;;;;;;2.83;1.60;;;16.40;66.90;;;;;;944089;150;27379;-71
2022/07/09 02:38:21;;;;;;;1.77;1.43;;;16.30;66.80;;;;;;942302;150;27281;-71
2022/07/09 02:40:45;;;;;;;2.23;1.70;;;16.30;66.90;;;;;;943538;150;27462;-71
2022/07/09 02:43:11;;;;;;;1.67;1.57;;;16.30;67.00;;;;;;943555;148;27384;-71
2022/07/09 02:45:38;;;;;;;2.03;1.87;;;16.30;67.10;;;;;;944486;150;27454;-71
2022/07/09 02:48:05;;;;;;;3.23;1.70;;;16.30;66.40;;;;;;946393;150;27420;-71
2022/07/09 02:50:31;;;;;;;1.70;1.60;;;16.30;67.30;;;;;;943158;149;27786;-71
2022/07/09 02:52:58;;;;;;;1.83;1.60;;;16.30;67.50;;;;;;943777;150;27372;-71
2022/07/09 02:55:24;;;;;;;2.40;2.20;;;16.30;67.70;;;;;;944222;149;27381;-71
2022/07/09 02:57:51;;;;;;;2.13;1.80;;;16.20;67.80;;;;;;942733;150;28303;-71
2022/07/09 03:00:18;;;;;;;1.80;1.70;;;16.20;67.90;;;;;;941864;150;27384;-71
2022/07/09 03:02:44;;;;;;;2.17;1.60;;;16.20;68.00;;;;;;945535;148;27316;-71
2022/07/09 03:05:11;;;;;;;1.90;1.70;;;16.20;68.10;;;;;;945656;150;27737;-71
2022/07/09 03:07:37;;;;;;;1.53;1.43;;;16.20;68.10;;;;;;943229;150;27384;-71
2022/07/09 03:10:04;;;;;;;1.93;1.60;;;16.10;68.20;;;;;;944753;148;27445;-71
2022/07/09 03:12:31;;;;;;;2.47;1.90;;;16.10;68.10;;;;;;943972;150;27836;-72
2022/07/09 03:14:57;;;;;;;4.40;1.70;;;16.10;68.20;;;;;;944227;150;27433;-71
2022/07/09 03:17:26;;;;;;;1.93;1.57;;;16.10;68.40;;;;;;943458;150;27417;-71
2022/07/09 03:19:50;;;;;;;3.27;1.60;;;16.10;68.50;;;;;;943745;150;27439;-71
2022/07/09 03:22:17;;;;;;;3.23;2.03;;;16.00;68.70;;;;;;942978;150;27459;-71
2022/07/09 03:24:43;;;;;;;4.37;1.80;;;16.00;68.90;;;;;;944584;150;28396;-71
2022/07/09 03:27:10;;;;;;;2.53;1.63;;;16.00;69.20;;;;;;944226;150;27372;-72
2022/07/09 03:29:37;;;;;;;2.10;1.70;;;16.00;69.30;;;;;;945891;150;27321;-71
2022/07/09 03:32:03;;;;;;;2.33;1.87;;;16.00;69.50;;;;;;943397;150;27326;-71
2022/07/09 03:34:30;;;;;;;1.70;1.60;;;16.00;69.60;;;;;;944460;148;27413;-71
2022/07/09 03:36:56;;;;;;;3.40;2.37;;;16.00;69.70;;;;;;943037;149;27361;-71
2022/07/09 03:39:23;;;;;;;2.37;1.80;;;16.00;69.90;;;;;;943016;150;27425;-71
2022/07/09 03:41:50;;;;;;;2.30;2.10;;;16.00;70.00;;;;;;943493;150;27415;-71
2022/07/09 03:44:16;;;;;;;2.27;2.10;;;16.00;70.10;;;;;;943088;150;27330;-72
2022/07/09 03:49:14;;;;;;;2.17;1.90;;;16.10;70.30;;;;;;974331;145;38864;-70
2022/07/09 03:51:42;;;;;;;2.07;1.87;;;16.10;70.80;;;;;;944012;149;27360;-71
2022/07/09 03:54:07;;;;;;;2.20;2.00;;;16.20;70.70;;;;;;936716;151;27699;-70
2022/07/09 03:56:33;;;;;;;2.70;2.07;;;16.20;71.60;;;;;;937337;151;27739;-70
2022/07/09 03:59:00;;;;;;;2.43;2.00;;;16.30;70.90;;;;;;937303;151;27312;-70
2022/07/09 04:01:27;;;;;;;2.03;1.83;;;16.30;70.90;;;;;;937020;151;27327;-70
2022/07/09 04:03:53;;;;;;;1.83;1.73;;;16.40;71.00;;;;;;937130;149;27396;-70
2022/07/09 04:06:20;;;;;;;2.63;2.10;;;16.50;71.00;;;;;;937603;148;27453;-71
2022/07/09 04:08:46;;;;;;;1.60;1.50;;;16.50;71.00;;;;;;937588;149;27458;-70
2022/07/09 04:11:13;;;;;;;2.50;2.30;;;16.60;70.90;;;;;;939262;151;27335;-73
2022/07/09 04:13:40;;;;;;;2.07;1.87;;;16.70;71.00;;;;;;937254;151;27421;-73
2022/07/09 04:16:06;;;;;;;2.27;2.07;;;16.70;71.00;;;;;;940871;151;27322;-73
2022/07/09 04:18:33;;;;;;;1.80;1.70;;;16.80;71.10;;;;;;937203;151;27301;-73
2022/07/09 04:20:59;;;;;;;3.73;2.07;;;16.90;71.10;;;;;;936518;151;27367;-73
2022/07/09 04:23:26;;;;;;;3.80;2.17;;;16.90;71.00;;;;;;938802;150;27356;-73
2022/07/09 04:25:53;;;;;;;2.57;2.13;;;17.00;71.00;;;;;;937259;151;27317;-73
2022/07/09 04:28:19;;;;;;;1.87;1.77;;;17.10;71.10;;;;;;938270;151;27296;-73
2022/07/09 04:30:46;;;;;;;2.20;2.03;;;17.20;70.90;;;;;;937088;148;28114;-73
2022/07/09 04:33:12;;;;;;;2.07;1.93;;;17.30;70.80;;;;;;937462;149;27329;-73
2022/07/09 04:35:39;;;;;;;2.13;1.97;;;17.40;70.80;;;;;;938159;151;27376;-73
2022/07/09 04:38:06;;;;;;;2.63;2.30;;;17.40;70.70;;;;;;903985;157;27472;-73
2022/07/09 04:40:32;;;;;;;2.00;1.90;;;17.50;70.50;;;;;;936667;151;27387;-73
2022/07/09 04:42:59;;;;;;;2.10;2.00;;;17.60;70.40;;;;;;938408;151;27433;-73
2022/07/09 04:45:25;;;;;;;3.08;2.25;;;17.70;70.30;;;;;;937449;150;27672;-73
2022/07/09 04:47:52;;;;;;;2.23;2.03;;;17.80;70.30;;;;;;937414;150;27438;-73
2022/07/09 04:50:19;;;;;;;3.15;2.20;;;17.80;70.10;;;;;;919937;150;27440;-73
2022/07/09 04:52:45;;;;;;;4.47;2.03;;;18.00;70.10;;;;;;936133;148;27369;-73
2022/07/09 04:55:12;;;;;;;2.62;2.30;;;18.00;70.10;;;;;;936203;148;27669;-72
2022/07/09 04:57:38;;;;;;;2.15;1.95;;;18.10;70.40;;;;;;936528;148;27400;-73
2022/07/09 05:00:05;;;;;;;3.33;2.12;;;18.30;71.00;;;;;;935783;148;27356;-73
2022/07/09 05:02:32;;;;;;;3.83;2.20;;;18.50;71.50;;;;;;935553;148;27374;-73
2022/07/09 05:04:58;;;;;;;2.25;1.90;;;18.80;72.10;;;;;;934563;148;27296;-73
2022/07/09 05:07:25;;;;;;;2.67;2.47;;;19.20;72.30;;;;;;935248;148;27442;-73
2022/07/09 05:09:51;;;;;;;2.58;2.37;;;19.60;72.40;;;;;;936798;148;27395;-73
2022/07/09 05:12:18;;;;;;;2.37;1.90;;;20.10;72.30;;;;;;936067;148;27458;-73
2022/07/09 05:14:45;;;;;;;2.33;1.90;;;20.60;71.90;;;;;;937072;148;27445;-73
2022/07/09 05:17:11;;;;;;;3.22;1.60;;;21.30;71.40;;;;;;935345;148;27440;-73
2022/07/09 05:19:38;;;;;;;1.72;1.60;;;21.90;70.60;;;;;;933000;148;27352;-71
2022/07/09 05:22:04;;;;;;;1.70;1.60;;;22.50;69.40;;;;;;935481;148;27409;-71
2022/07/09 05:24:31;;;;;;;2.00;1.80;;;23.10;68.20;;;;;;934173;148;27363;-71
2022/07/09 05:26:57;;;;;;;2.42;1.90;;;23.80;66.80;;;;;;937471;148;27363;-71
2022/07/09 05:29:26;;;;;;;2.47;1.72;;;24.30;65.30;;;;;;935078;148;28478;-71
2022/07/09 05:31:51;;;;;;;2.05;1.85;;;24.90;64.00;;;;;;934844;148;27316;-71
2022/07/09 05:34:17;;;;;;;1.52;1.42;;;25.40;62.90;;;;;;934908;148;27385;-71
2022/07/09 05:36:44;;;;;;;1.47;1.37;;;26.00;61.70;;;;;;932953;148;27264;-71
2022/07/09 05:39:10;;;;;;;1.95;1.80;;;26.40;60.00;;;;;;940514;147;27911;-71
2022/07/09 05:41:37;;;;;;;2.58;1.65;;;26.80;59.10;;;;;;937791;148;27359;-71
2022/07/09 05:44:04;;;;;;;3.05;1.70;;;27.20;58.30;;;;;;934531;148;27303;-71
2022/07/09 05:46:30;;;;;;;2.05;1.50;;;27.40;57.70;;;;;;935088;148;27261;-71
2022/07/09 05:48:57;;;;;;;2.20;2.00;;;27.70;57.30;;;;;;935868;148;27345;-71
2022/07/09 05:51:23;;;;;;;1.75;1.27;;;28.00;56.90;;;;;;923421;153;27386;-71
2022/07/09 05:53:50;;;;;;;2.70;1.47;;;28.40;56.40;;;;;;939449;150;27444;-71
2022/07/09 05:56:17;;;;;;;2.02;1.57;;;28.70;55.90;;;;;;941032;150;28171;-71
2022/07/09 05:58:43;;;;;;;3.37;1.60;;;29.00;55.40;;;;;;939339;150;27301;-71
2022/07/09 06:01:11;;;;;;;1.40;1.30;;;29.30;55.00;;;;;;939769;150;27298;-71
2022/07/09 06:03:36;;;;;;;1.52;1.42;;;29.70;54.90;;;;;;937601;150;27453;-71
2022/07/09 06:06:03;;;;;;;1.40;1.30;;;30.10;54.50;;;;;;941223;150;27349;-71
2022/07/09 06:08:31;;;;;;;1.80;1.27;;;30.60;54.30;;;;;;938899;150;27459;-71
2022/07/09 06:10:56;;;;;;;1.37;1.27;;;31.20;53.80;;;;;;938883;150;27298;-71
2022/07/09 06:13:23;;;;;;;1.75;1.30;;;31.70;53.20;;;;;;939776;150;27326;-71
2022/07/09 06:15:50;;;;;;;1.25;1.15;;;32.20;52.20;;;;;;939965;149;27793;-71
2022/07/09 06:18:16;;;;;;;1.30;1.20;;;32.80;51.40;;;;;;940520;148;27435;-71
2022/07/09 06:20:42;;;;;;;1.90;1.25;;;33.30;50.80;;;;;;939779;150;27341;-72
2022/07/09 06:23:09;;;;;;;1.57;1.27;;;33.90;50.40;;;;;;939010;149;27358;-72
2022/07/09 06:25:37;;;;;;;1.40;1.25;;;34.40;49.70;;;;;;938502;151;26225;-72
2022/07/09 06:28:02;;;;;;;2.98;1.00;;;35.00;48.90;;;;;;940028;148;26246;-72
2022/07/09 06:30:29;;;;;;;1.17;1.02;;;35.60;48.20;;;;;;938791;150;27425;-72
2022/07/09 06:32:55;;;;;;;1.35;1.10;;;36.20;47.40;;;;;;923845;154;26347;-72
2022/07/09 06:35:22;;;;;;;1.12;1.12;;;36.70;46.60;;;;;;940663;150;26292;-72
2022/07/09 06:37:49;;;;;;;1.80;1.20;;;37.20;45.80;;;;;;940621;150;26278;-72
2022/07/09 06:40:15;;;;;;;1.30;0.98;;;37.70;44.90;;;;;;940235;148;26233;-72
2022/07/09 06:42:42;;;;;;;1.77;1.17;;;38.20;44.20;;;;;;938715;150;26311;-72
2022/07/09 06:45:09;;;;;;;1.05;0.88;;;38.60;43.60;;;;;;940505;150;26457;-72
2022/07/09 06:47:35;;;;;;;1.12;0.95;;;39.00;43.00;;;;;;940568;148;26375;-73
2022/07/09 06:50:01;;;;;;;1.47;1.15;;;39.30;42.10;;;;;;939850;150;27829;-73
2022/07/09 06:52:28;;;;;;;1.15;1.00;;;39.70;41.30;;;;;;935525;151;26733;-73
2022/07/09 06:54:55;;;;;;;2.47;1.25;;;39.90;40.70;;;;;;936330;151;26245;-72
2022/07/09 06:57:21;;;;;;;2.42;1.72;;;40.00;39.80;;;;;;934408;151;26356;-73
2022/07/09 06:59:48;;;;;;;1.47;1.15;;;40.10;39.30;;;;;;922158;154;26366;-72
2022/07/09 07:02:18;;;;;;;1.80;1.47;;;40.00;38.70;;;;;;936290;150;26311;-73
2022/07/09 07:04:44;;;;;;;5.05;1.20;;;39.90;38.30;;;;;;937153;151;27375;-73
2022/07/09 07:07:11;;;;;;;0.98;0.98;;;39.70;38.00;;;;;;935756;151;26178;-72
2022/07/09 07:09:37;;;;;;;0.90;0.88;;;39.50;38.00;;;;;;936037;151;26695;-73
2022/07/09 07:12:04;;;;;;;0.98;0.88;;;39.30;37.90;;;;;;933762;151;26322;-73
2022/07/09 07:14:30;;;;;;;1.25;1.05;;;39.20;38.00;;;;;;935889;151;26271;-73
2022/07/09 07:16:57;;;;;;;1.82;0.93;;;39.10;38.00;;;;;;937692;151;27782;-72
2022/07/09 07:19:24;;;;;;;2.12;1.20;;;38.90;38.00;;;;;;936508;149;26336;-73
2022/07/09 07:21:50;;;;;;;2.95;1.40;;;38.80;38.20;;;;;;937422;151;26222;-72
2022/07/09 07:24:17;;;;;;;2.47;1.15;;;38.60;37.40;;;;;;938993;151;26266;-73
2022/07/09 07:26:43;;;;;;;1.95;1.15;;;38.30;37.30;;;;;;935794;151;27565;-73
2022/07/09 07:29:10;;;;;;;2.92;1.02;;;38.10;37.30;;;;;;937735;151;26327;-72
2022/07/09 07:31:36;;;;;;;1.07;0.98;;;38.00;37.60;;;;;;937477;151;26319;-72
2022/07/09 07:34:03;;;;;;;1.17;1.07;;;37.80;37.80;;;;;;937150;151;26344;-72
2022/07/09 07:36:30;;;;;;;3.50;1.60;;;37.70;37.70;;;;;;936889;151;26262;-72
2022/07/09 07:38:56;;;;;;;1.20;1.10;;;37.60;37.40;;;;;;935723;148;27407;-73
2022/07/09 07:41:23;;;;;;;1.55;1.15;;;37.40;37.30;;;;;;922329;154;27357;-72
2022/07/09 07:43:49;;;;;;;2.80;1.40;;;37.10;37.20;;;;;;920240;154;27393;-72
2022/07/09 07:46:16;;;;;;;2.37;1.35;;;36.70;37.10;;;;;;936719;149;27414;-72
2022/07/09 07:48:43;;;;;;;2.67;1.37;;;36.30;37.10;;;;;;934564;151;27339;-72
2022/07/09 07:51:09;;;;;;;3.08;1.75;;;35.70;37.10;;;;;;946060;146;27479;-72
2022/07/09 07:53:36;;;;;;;1.75;1.45;;;35.20;37.40;;;;;;951662;146;27353;-72
2022/07/09 07:56:05;;;;;;;1.62;1.47;;;34.70;37.70;;;;;;952800;146;27326;-72
2022/07/09 07:58:32;;;;;;;3.22;1.30;;;34.20;38.00;;;;;;952899;146;27364;-72
2022/07/09 08:00:58;;;;;;;1.87;1.30;;;33.70;38.40;;;;;;953443;146;27358;-72
2022/07/09 08:03:25;;;;;;;1.87;1.40;;;33.30;38.90;;;;;;932415;149;27374;-72
2022/07/09 08:05:52;;;;;;;3.12;1.70;;;32.90;39.30;;;;;;932498;149;27860;-72
2022/07/09 08:08:21;;;;;;;1.92;1.30;;;32.50;39.80;;;;;;931927;149;27452;-72
2022/07/09 08:10:48;;;;;;;1.37;1.20;;;32.20;40.10;;;;;;933540;149;27404;-72
2022/07/09 08:13:14;;;;;;;3.15;1.67;;;32.00;40.50;;;;;;934718;149;27287;-72
2022/07/09 08:15:41;;;;;;;2.67;1.42;;;31.80;40.90;;;;;;932700;149;27403;-72
2022/07/09 08:18:11;;;;;;;2.45;1.80;;;31.60;41.20;;;;;;930038;149;27460;-72
2022/07/09 08:20:36;;;;;;;1.85;1.37;;;31.40;41.50;;;;;;932797;149;27327;-72
2022/07/09 08:23:00;;;;;;;1.57;1.45;;;31.30;41.70;;;;;;930756;149;27389;-72
2022/07/09 08:25:27;;;;;;;2.70;1.50;;;31.20;42.50;;;;;;932251;149;27449;-72
2022/07/09 08:27:54;;;;;;;3.27;1.57;;;31.20;42.30;;;;;;932391;149;27487;-72
2022/07/09 08:30:20;;;;;;;4.00;1.67;;;31.20;42.50;;;;;;931401;149;27362;-72
2022/07/09 08:32:47;;;;;;;3.05;1.62;;;31.30;42.50;;;;;;932364;149;27380;-72
2022/07/09 08:35:13;;;;;;;3.92;1.60;;;31.30;42.20;;;;;;932303;149;27409;-72
2022/07/09 08:37:40;;;;;;;2.25;1.60;;;31.30;42.00;;;;;;933776;149;27335;-72
2022/07/09 08:40:07;;;;;;;2.90;1.92;;;31.20;41.90;;;;;;933608;149;27430;-72
2022/07/09 08:42:33;;;;;;;1.52;1.40;;;31.10;41.80;;;;;;931565;149;27862;-72
2022/07/09 08:45:00;;;;;;;3.40;1.62;;;30.90;41.90;;;;;;933499;149;27363;-72
2022/07/09 08:47:26;;;;;;;2.05;1.60;;;30.70;42.10;;;;;;934231;150;27336;-72
2022/07/09 08:49:56;;;;;;;2.42;1.45;;;30.50;42.30;;;;;;931538;149;27328;-72
2022/07/09 08:52:22;;;;;;;5.75;2.00;;;30.30;42.30;;;;;;932745;149;27531;-72
2022/07/09 08:54:49;;;;;;;1.45;1.35;;;30.10;42.60;;;;;;953690;145;27384;-73
2022/07/09 08:57:15;;;;;;;1.92;1.40;;;30.00;42.90;;;;;;951760;146;27407;-72
2022/07/09 08:59:42;;;;;;;1.25;1.15;;;29.80;43.10;;;;;;955420;146;27374;-72
2022/07/09 09:02:09;;;;;;;1.57;1.42;;;29.60;43.50;;;;;;952736;146;27380;-72
2022/07/09 09:04:35;;;;;;;1.50;1.40;;;29.60;43.70;;;;;;937543;149;27365;-73
2022/07/09 09:07:14;;;;;;;5.72;2.62;;;29.60;44.50;;;;;;936057;149;27377;-73
2022/07/09 09:09:41;;;;;;;2.55;1.85;;;29.70;45.00;;;;;;936286;149;27377;-73
2022/07/09 09:12:07;;;;;;;2.00;1.57;;;30.00;45.30;;;;;;954718;146;27331;-73
2022/07/09 09:14:34;;;;;;;4.50;1.92;;;30.60;46.00;;;;;;953671;146;27422;-73
2022/07/09 09:17:06;;;;;;;2.47;1.62;;;31.30;46.20;;;;;;939270;149;27347;-73
2022/07/09 09:19:33;;;;;;;5.60;2.00;;;32.10;45.90;;;;;;935629;149;26316;-73
2022/07/09 09:21:59;;;;;;;2.35;1.65;;;33.10;45.10;;;;;;952758;146;26293;-73
2022/07/09 09:24:26;;;;;;;3.52;1.60;;;34.00;44.50;;;;;;936833;149;26230;-73
2022/07/09 09:26:52;;;;;;;4.10;1.87;;;34.90;43.30;;;;;;935553;149;26328;-73
2022/07/09 09:29:19;;;;;;;2.05;1.60;;;35.60;42.20;;;;;;953108;146;26740;-73
2022/07/09 09:31:46;;;;;;;1.82;1.55;;;36.20;41.20;;;;;;954700;146;26359;-73
2022/07/09 09:34:12;;;;;;;2.95;1.67;;;36.70;40.30;;;;;;953658;146;26279;-73
2022/07/09 09:36:39;;;;;;;1.85;1.67;;;36.90;38.80;;;;;;953299;146;28187;-73
2022/07/09 09:39:26;;;;;;;2.77;2.10;;;36.90;38.00;;;;;;941690;149;27433;-73
2022/07/09 09:41:56;;;;;;;1.62;1.50;;;36.80;37.30;;;;;;955113;146;27696;-73
2022/07/09 09:44:29;;;;;;;2.08;1.65;;;36.40;37.20;;;;;;951461;146;27405;-73
2022/07/09 09:46:55;;;;;;;1.90;1.20;;;36.10;37.70;;;;;;954363;146;26281;-73
2022/07/09 09:49:21;;;;;;;1.70;1.40;;;36.10;38.60;;;;;;952379;146;26278;-73
2022/07/09 09:52:06;;;;;;;1.95;1.45;;;36.20;38.90;;;;;;951807;146;27362;-73
2022/07/09 09:54:33;;;;;;;1.77;1.20;;;36.40;38.50;;;;;;951430;146;26199;-73
2022/07/09 09:56:59;;;;;;;1.50;1.40;;;36.70;37.60;;;;;;950758;146;26326;-73
2022/07/09 09:59:26;;;;;;;1.30;1.20;;;36.80;36.30;;;;;;950722;146;27405;-73
2022/07/09 10:01:52;;;;;;;1.45;1.35;;;36.80;36.30;;;;;;950157;146;27356;-73
2022/07/09 10:04:21;;;;;;;1.30;1.20;;;36.70;36.20;;;;;;952104;146;27364;-74
2022/07/09 10:06:46;;;;;;;3.10;1.75;;;36.50;35.90;;;;;;952420;146;27440;-73
2022/07/09 10:09:12;;;;;;;1.37;1.27;;;36.40;36.00;;;;;;950875;146;27355;-73
2022/07/09 10:11:45;;;;;;;1.40;1.30;;;36.20;35.70;;;;;;952327;146;27772;-73
2022/07/09 10:14:24;;;;;;;1.30;1.10;;;36.00;35.30;;;;;;950749;146;28072;-73
2022/07/09 10:16:50;;;;;;;1.15;1.15;;;35.60;35.00;;;;;;952686;146;27367;-73
2022/07/09 10:19:29;;;;;;;1.50;1.40;;;35.30;35.20;;;;;;951696;146;27317;-73
2022/07/09 10:21:56;;;;;;;1.42;1.32;;;34.80;35.10;;;;;;951698;146;27903;-73
2022/07/09 10:24:28;;;;;;;2.67;1.52;;;34.40;35.40;;;;;;952996;146;27739;-72
2022/07/09 10:27:10;;;;;;;2.27;1.70;;;33.90;35.40;;;;;;952373;146;27346;-73
2022/07/09 10:29:36;;;;;;;1.20;0.95;;;33.40;35.70;;;;;;952787;146;27369;-73
2022/07/09 10:32:03;;;;;;;2.75;1.05;;;32.90;36.40;;;;;;951940;146;27360;-73
2022/07/09 10:34:48;;;;;;;0.90;0.80;;;32.60;37.10;;;;;;952502;146;27323;-73
2022/07/09 10:37:14;;;;;;;0.98;0.90;;;32.40;37.50;;;;;;952354;146;27354;-73
2022/07/09 10:39:41;;;;;;;1.67;0.98;;;32.30;37.90;;;;;;936878;149;27373;-73
2022/07/09 10:42:20;;;;;;;1.00;1.00;;;32.40;37.90;;;;;;938813;149;27468;-73
2022/07/09 10:44:49;;;;;;;1.05;0.95;;;32.40;37.70;;;;;;943372;150;27335;-73
2022/07/09 10:47:13;;;;;;;2.47;0.78;;;32.50;37.80;;;;;;942781;148;27344;-73
2022/07/09 10:49:40;;;;;;;1.27;0.95;;;32.50;37.60;;;;;;940348;148;27335;-73
2022/07/09 10:52:06;;;;;;;1.62;0.88;;;32.50;37.30;;;;;;944090;148;27374;-73
2022/07/09 10:54:33;;;;;;;2.05;1.07;;;32.40;37.20;;;;;;941839;148;27291;-73
2022/07/09 10:56:59;;;;;;;0.95;0.93;;;32.30;37.10;;;;;;943000;148;27344;-73
2022/07/09 10:59:26;;;;;;;1.05;0.90;;;32.20;36.90;;;;;;933572;149;27384;-73
2022/07/09 11:01:55;;;;;;;0.65;0.65;;;32.00;36.90;;;;;;952573;146;27344;-73
2022/07/09 11:04:28;;;;;;;1.00;1.00;;;31.90;37.20;;;;;;950176;146;28064;-73
2022/07/09 11:06:55;;;;;;;1.57;1.47;;;31.70;37.30;;;;;;951034;146;27353;-73
2022/07/09 11:09:21;;;;;;;1.00;1.00;;;31.50;37.10;;;;;;953921;146;27399;-73
2022/07/09 11:11:48;;;;;;;1.10;1.10;;;31.50;37.40;;;;;;932524;149;27371;-73
2022/07/09 11:14:15;;;;;;;0.90;0.90;;;31.40;37.70;;;;;;951153;146;27293;-74
2022/07/09 11:16:41;;;;;;;1.22;1.12;;;31.50;38.10;;;;;;951017;146;27663;-74
2022/07/09 11:19:17;;;;;;;1.77;1.20;;;31.50;38.30;;;;;;951293;146;27453;-74
2022/07/09 11:21:43;;;;;;;1.10;1.00;;;31.70;38.40;;;;;;950488;146;27442;-75
2022/07/09 11:24:13;;;;;;;1.10;1.10;;;31.90;38.50;;;;;;951667;146;27486;-74
2022/07/09 11:26:39;;;;;;;0.82;0.82;;;32.00;38.50;;;;;;952322;146;27824;-75
2022/07/09 11:29:09;;;;;;;1.30;1.20;;;32.20;38.00;;;;;;950212;146;27470;-76
2022/07/09 11:31:35;;;;;;;1.25;1.15;;;32.30;37.60;;;;;;951234;146;27302;-75
2022/07/09 11:34:14;;;;;;;2.30;1.47;;;32.40;37.30;;;;;;950234;146;27361;-75
2022/07/09 11:36:40;;;;;;;1.52;1.42;;;32.50;37.10;;;;;;952974;146;27375;-75
2022/07/09 11:39:07;;;;;;;1.95;1.50;;;32.50;36.80;;;;;;952227;146;27453;-76
2022/07/09 11:41:42;;;;;;;1.52;1.40;;;32.50;36.90;;;;;;953400;146;27299;-75
2022/07/09 11:44:09;;;;;;;1.40;1.30;;;32.40;36.80;;;;;;951344;146;27289;-76
2022/07/09 11:46:37;;;;;;;3.60;1.40;;;32.30;36.90;;;;;;954309;146;27377;-76
2022/07/09 11:49:02;;;;;;;1.52;1.42;;;32.30;37.00;;;;;;935022;149;27344;-76
2022/07/09 11:51:32;;;;;;;1.67;1.30;;;32.30;37.30;;;;;;943251;148;27372;-75
2022/07/09 11:53:58;;;;;;;1.60;1.50;;;32.30;37.20;;;;;;942722;148;27504;-75
2022/07/09 11:56:25;;;;;;;1.10;1.10;;;32.30;36.50;;;;;;941430;148;27432;-76
2022/07/09 11:58:51;;;;;;;1.50;1.40;;;32.40;37.20;;;;;;942947;148;27369;-76
2022/07/09 12:01:18;;;;;;;1.75;1.45;;;32.40;36.90;;;;;;943686;148;27372;-76
2022/07/09 12:03:47;;;;;;;1.52;1.42;;;32.40;36.90;;;;;;942937;148;27346;-75
2022/07/09 12:06:14;;;;;;;1.95;1.60;;;32.40;36.60;;;;;;942955;148;27993;-76
2022/07/09 12:08:40;;;;;;;1.85;1.27;;;32.30;36.30;;;;;;942495;148;27278;-75
2022/07/09 12:11:07;;;;;;;1.30;1.20;;;32.30;36.50;;;;;;942560;148;27373;-76
2022/07/09 12:13:33;;;;;;;1.70;1.60;;;32.30;36.50;;;;;;942952;148;27490;-75
2022/07/09 12:16:00;;;;;;;1.60;1.50;;;32.20;36.50;;;;;;944304;148;27362;-76
2022/07/09 12:18:28;;;;;;;1.60;1.50;;;32.10;36.50;;;;;;943388;148;27305;-75
2022/07/09 12:20:53;;;;;;;2.62;1.95;;;32.10;36.60;;;;;;943072;148;27425;-76
2022/07/09 12:23:20;;;;;;;1.50;1.40;;;32.00;36.70;;;;;;945038;148;27424;-75
2022/07/09 12:25:46;;;;;;;1.70;1.60;;;31.90;36.80;;;;;;942642;148;27348;-75
2022/07/09 12:28:13;;;;;;;1.67;1.50;;;31.90;37.10;;;;;;943785;148;27409;-75
2022/07/09 12:30:40;;;;;;;3.52;1.80;;;31.80;37.00;;;;;;944358;148;27755;-75
2022/07/09 12:33:07;;;;;;;0.95;0.95;;;31.80;36.90;;;;;;943397;148;27302;-75
2022/07/09 12:35:33;;;;;;;2.55;1.50;;;31.70;36.90;;;;;;944174;148;27306;-75
2022/07/09 12:37:59;;;;;;;1.22;1.07;;;31.70;36.90;;;;;;944520;148;27389;-75
2022/07/09 12:40:27;;;;;;;2.35;1.20;;;31.60;36.80;;;;;;934905;149;27369;-75
2022/07/09 12:42:53;;;;;;;1.30;1.20;;;31.60;36.90;;;;;;952917;146;27282;-75
2022/07/09 12:45:19;;;;;;;1.40;1.30;;;31.50;36.90;;;;;;950936;146;27321;-76
2022/07/09 12:47:47;;;;;;;1.22;1.12;;;31.50;37.00;;;;;;953157;146;27416;-75
2022/07/09 12:50:12;;;;;;;1.25;1.15;;;31.50;37.20;;;;;;950960;146;27361;-76